createdAt,value
2018-04-06T00:00:35.343Z,82.20
2018-04-06T00:03:02.956Z,81.30
2018-04-06T00:05:31.289Z,81.90
2018-04-06T00:07:58.886Z,81.90
2018-04-06T00:10:27.371Z,81.20
2018-04-06T00:12:55.641Z,80.80
2018-04-06T00:15:23.138Z,80.80
2018-04-06T00:17:50.613Z,81.40
2018-04-06T00:20:18.113Z,80.60
2018-04-06T00:22:48.934Z,80.80
2018-04-06T00:25:16.411Z,80.70
2018-04-06T00:27:44.693Z,81.10
2018-04-06T00:30:12.938Z,80.30
2018-04-06T00:32:40.495Z,80.20
2018-04-06T00:35:07.981Z,80.40
2018-04-06T00:37:35.447Z,80.10
2018-04-06T00:40:02.952Z,80.10
2018-04-06T00:42:30.462Z,79.80
2018-04-06T00:44:57.939Z,79.80
2018-04-06T00:47:26.994Z,79.60
2018-04-06T00:49:54.505Z,79.50
2018-04-06T00:52:21.968Z,79.80
2018-04-06T00:54:49.476Z,79.60
2018-04-06T00:57:17.146Z,80.00
2018-04-06T00:59:44.626Z,79.80
2018-04-06T01:02:12.120Z,79.80
2018-04-06T01:04:39.768Z,79.70
2018-04-06T01:07:07.846Z,79.50
2018-04-06T01:09:35.608Z,79.60
2018-04-06T01:12:03.113Z,79.70
2018-04-06T01:14:30.609Z,79.70
2018-04-06T01:16:58.200Z,79.70
2018-04-06T01:19:25.664Z,79.70
2018-04-06T01:21:53.667Z,79.80
2018-04-06T01:24:21.135Z,79.70
2018-04-06T01:26:49.411Z,80.40
2018-04-06T01:29:17.653Z,80.30
2018-04-06T01:31:45.128Z,80.30
2018-04-06T01:34:12.635Z,80.70
2018-04-06T01:36:41.947Z,81.60
2018-04-06T01:39:09.602Z,81.50
2018-04-06T01:41:37.083Z,81.30
2018-04-06T01:44:04.564Z,81.80
2018-04-06T01:46:32.044Z,82.40
2018-04-06T01:49:00.300Z,82.10
2018-04-06T01:51:27.872Z,82.00
2018-04-06T01:53:56.118Z,81.30
2018-04-06T01:56:23.582Z,81.30
2018-04-06T01:58:53.189Z,81.20
2018-04-06T02:01:22.780Z,81.10
2018-04-06T02:03:50.397Z,81.20
2018-04-06T02:06:18.633Z,81.60
2018-04-06T02:08:46.160Z,81.60
2018-04-06T02:11:13.729Z,81.80
2018-04-06T02:13:41.226Z,82.30
2018-04-06T02:16:08.719Z,82.70
2018-04-06T02:18:36.239Z,82.90
2018-04-06T02:21:03.760Z,83.30
2018-04-06T02:23:31.252Z,83.40
2018-04-06T02:25:58.719Z,84.00
2018-04-06T02:28:26.270Z,83.90
2018-04-06T02:30:53.949Z,84.70
2018-04-06T02:33:21.422Z,84.00
2018-04-06T02:35:49.687Z,84.20
2018-04-06T02:38:17.912Z,84.60
2018-04-06T02:40:45.396Z,84.50
2018-04-06T02:43:12.933Z,84.80
2018-04-06T02:45:40.434Z,84.90
2018-04-06T02:48:07.951Z,85.10
2018-04-06T02:50:35.429Z,85.40
2018-04-06T02:53:02.904Z,85.60
2018-04-06T02:55:30.396Z,85.70
2018-04-06T02:57:57.909Z,85.70
2018-04-06T03:00:25.409Z,85.80
2018-04-06T03:02:53.628Z,86.10
2018-04-06T03:05:21.190Z,86.00
2018-04-06T03:07:48.685Z,86.00
2018-04-06T03:10:18.373Z,86.10
2018-04-06T03:12:45.870Z,86.30
2018-04-06T03:15:13.404Z,86.30
2018-04-06T03:17:41.725Z,86.50
2018-04-06T03:20:10.409Z,86.40
2018-04-06T03:22:37.918Z,86.30
2018-04-06T03:25:05.532Z,85.90
2018-04-06T03:27:33.048Z,86.10
2018-04-06T03:30:00.543Z,85.60
2018-04-06T03:32:28.041Z,85.60
2018-04-06T03:34:56.043Z,85.80
2018-04-06T03:37:23.579Z,85.90
2018-04-06T03:39:51.050Z,85.90
2018-04-06T03:42:18.595Z,85.90
2018-04-06T03:44:46.110Z,85.90
2018-04-06T03:47:13.557Z,86.00
2018-04-06T03:49:41.052Z,85.90
2018-04-06T03:52:08.543Z,86.30
2018-04-06T03:54:36.793Z,86.50
2018-04-06T03:57:04.286Z,86.40
2018-04-06T03:59:31.800Z,86.30
2018-04-06T04:01:59.278Z,86.60
2018-04-06T04:04:26.794Z,86.30
2018-04-06T04:06:54.281Z,86.20
2018-04-06T04:09:21.783Z,86.40
2018-04-06T04:11:50.439Z,86.50
2018-04-06T04:14:17.904Z,86.40
2018-04-06T04:16:45.460Z,86.50
2018-04-06T04:19:12.925Z,87.30
2018-04-06T04:21:40.416Z,87.50
2018-04-06T04:24:07.926Z,87.40
2018-04-06T04:26:37.469Z,87.30
2018-04-06T04:29:05.988Z,86.40
2018-04-06T04:31:33.514Z,86.30
2018-04-06T04:34:01.801Z,86.40
2018-04-06T04:36:29.316Z,86.40
2018-04-06T04:38:56.835Z,86.50
2018-04-06T04:41:24.320Z,86.40
2018-04-06T04:43:52.953Z,86.60
2018-04-06T04:46:21.244Z,86.90
2018-04-06T04:48:48.771Z,86.80
2018-04-06T04:51:16.492Z,87.00
2018-04-06T04:53:43.965Z,87.00
2018-04-06T04:56:11.463Z,87.10
2018-04-06T04:58:39.713Z,87.50
2018-04-06T05:01:07.215Z,87.40
2018-04-06T05:03:34.711Z,87.40
2018-04-06T05:06:02.194Z,87.20
2018-04-06T05:08:29.713Z,86.80
2018-04-06T05:10:57.171Z,87.00
2018-04-06T05:13:24.715Z,86.80
2018-04-06T05:15:52.243Z,86.90
2018-04-06T05:18:21.430Z,86.30
2018-04-06T05:20:48.945Z,85.70
2018-04-06T05:23:16.442Z,85.70
2018-04-06T05:25:46.364Z,85.60
2018-04-06T05:28:13.833Z,85.30
2018-04-06T05:30:42.161Z,84.90
2018-04-06T05:33:09.644Z,84.80
2018-04-06T05:35:37.123Z,84.70
2018-04-06T05:38:05.544Z,85.10
2018-04-06T05:40:34.560Z,84.40
2018-04-06T05:43:02.073Z,84.40
2018-04-06T05:45:35.630Z,84.00
2018-04-06T05:48:03.111Z,83.90
2018-04-06T05:50:30.672Z,84.50
2018-04-06T05:52:58.265Z,84.80
2018-04-06T05:55:25.760Z,84.50
2018-04-06T05:57:53.346Z,83.90
2018-04-06T06:00:20.907Z,79.80
2018-04-06T06:02:48.398Z,71.40
2018-04-06T06:05:20.045Z,65.10
2018-04-06T06:07:47.652Z,57.80
2018-04-06T06:10:15.183Z,52.80
2018-04-06T06:12:42.713Z,48.80
2018-04-06T06:15:10.228Z,45.60
2018-04-06T06:17:37.711Z,43.90
2018-04-06T06:20:05.268Z,43.20
2018-04-06T06:22:32.834Z,42.30
2018-04-06T06:25:00.332Z,41.80
2018-04-06T06:27:27.904Z,40.00
2018-04-06T06:29:55.520Z,40.00
2018-04-06T06:32:23.040Z,40.40
2018-04-06T06:34:50.598Z,40.20
2018-04-06T06:37:18.108Z,40.70
2018-04-06T06:39:46.424Z,41.40
2018-04-06T06:42:13.924Z,41.30
2018-04-06T06:44:41.415Z,42.10
2018-04-06T06:47:08.936Z,39.70
2018-04-06T06:49:37.258Z,38.80
2018-04-06T06:52:05.505Z,40.60
2018-04-06T06:54:33.077Z,40.60
2018-04-06T06:57:01.476Z,43.00
2018-04-06T06:59:28.988Z,43.00
2018-04-06T07:01:56.582Z,41.50
2018-04-06T07:04:24.849Z,44.80
2018-04-06T07:06:53.112Z,48.90
2018-04-06T07:09:20.624Z,48.90
2018-04-06T07:11:48.121Z,54.00
2018-04-06T07:14:15.676Z,58.60
2018-04-06T07:16:43.226Z,63.80
2018-04-06T07:19:10.797Z,64.80
2018-04-06T07:21:38.266Z,66.70
2018-04-06T07:24:05.826Z,67.80
2018-04-06T07:26:33.499Z,68.80
2018-04-06T07:29:01.190Z,69.00
2018-04-06T07:31:28.684Z,70.50
2018-04-06T07:33:56.147Z,70.10
2018-04-06T07:36:23.661Z,69.20
2018-04-06T07:38:51.157Z,70.10
2018-04-06T07:41:18.659Z,70.10
2018-04-06T07:43:46.172Z,70.20
2018-04-06T07:46:13.792Z,69.20
2018-04-06T07:48:42.091Z,68.30
2018-04-06T07:51:09.614Z,68.20
2018-04-06T07:53:37.963Z,67.50
2018-04-06T07:56:05.560Z,67.50
2018-04-06T07:58:34.721Z,66.70
2018-04-06T08:01:03.063Z,66.60
2018-04-06T08:03:30.626Z,66.60
2018-04-06T08:05:58.114Z,66.30
2018-04-06T08:08:25.875Z,67.50
2018-04-06T08:10:53.377Z,66.20
2018-04-06T08:13:21.621Z,66.40
2018-04-06T08:15:49.116Z,66.30
2018-04-06T08:18:17.363Z,63.80
2018-04-06T08:20:45.043Z,63.80
2018-04-06T08:23:12.792Z,63.50
2018-04-06T08:25:41.124Z,63.40
2018-04-06T08:28:08.829Z,63.40
2018-04-06T08:30:37.209Z,62.80
2018-04-06T08:33:05.821Z,63.00
2018-04-06T08:35:34.217Z,60.70
2018-04-06T08:38:01.753Z,60.70
2018-04-06T08:40:29.233Z,60.40
2018-04-06T08:42:56.759Z,60.10
2018-04-06T08:45:24.224Z,60.20
2018-04-06T08:47:52.520Z,59.30
2018-04-06T08:50:20.774Z,57.30
2018-04-06T08:52:48.996Z,57.30
2018-04-06T08:55:16.480Z,57.40
2018-04-06T08:57:44.110Z,56.50
2018-04-06T09:00:11.588Z,56.70
2018-04-06T09:02:39.101Z,56.30
2018-04-06T09:05:06.604Z,56.50
2018-04-06T09:07:34.154Z,55.70
2018-04-06T09:10:01.650Z,54.80
2018-04-06T09:12:29.128Z,55.00
2018-04-06T09:14:57.475Z,55.10
2018-04-06T09:17:25.352Z,55.70
2018-04-06T09:19:53.222Z,54.60
2018-04-06T09:22:21.058Z,54.20
2018-04-06T09:24:48.850Z,54.60
2018-04-06T09:27:16.541Z,54.20
2018-04-06T09:29:44.391Z,53.60
2018-04-06T09:32:11.877Z,53.50
2018-04-06T09:34:40.163Z,52.90
2018-04-06T09:37:07.677Z,52.80
2018-04-06T09:39:35.237Z,52.10
2018-04-06T09:42:03.233Z,52.10
2018-04-06T09:44:30.782Z,51.70
2018-04-06T09:46:59.027Z,51.60
2018-04-06T09:49:26.536Z,50.90
2018-04-06T09:51:54.041Z,51.00
2018-04-06T09:54:21.531Z,49.30
2018-04-06T09:56:49.046Z,50.00
2018-04-06T09:59:16.661Z,48.80
2018-04-06T10:01:47.498Z,48.30
2018-04-06T10:04:15.732Z,46.50
2018-04-06T10:06:43.282Z,46.40
2018-04-06T10:09:11.729Z,45.60
2018-04-06T10:11:40.099Z,42.50
2018-04-06T10:14:07.775Z,43.10
2018-04-06T10:16:36.021Z,33.40
2018-04-06T10:19:03.499Z,33.40
2018-04-06T10:21:31.803Z,34.40
2018-04-06T10:23:59.317Z,34.30
2018-04-06T10:26:26.799Z,33.90
2018-04-06T10:28:54.960Z,35.10
2018-04-06T10:31:23.234Z,33.90
2018-04-06T10:33:51.498Z,34.80
2018-04-06T10:36:19.016Z,34.70
2018-04-06T10:38:46.640Z,33.50
2018-04-06T10:41:14.896Z,33.50
2018-04-06T10:43:42.419Z,33.50
2018-04-06T10:46:09.965Z,31.50
2018-04-06T10:48:37.639Z,30.90
2018-04-06T10:51:05.155Z,31.40
2018-04-06T10:53:32.648Z,30.90
2018-04-06T10:56:00.153Z,31.20
2018-04-06T10:58:27.834Z,29.70
2018-04-06T11:00:56.083Z,29.90
2018-04-06T11:03:23.582Z,29.90
2018-04-06T11:05:51.821Z,28.90
2018-04-06T11:08:19.326Z,28.90
2018-04-06T11:10:46.827Z,29.50
2018-04-06T11:13:14.325Z,29.30
2018-04-06T11:15:42.593Z,29.30
2018-04-06T11:18:10.909Z,28.30
2018-04-06T11:20:38.374Z,28.30
2018-04-06T11:23:05.924Z,27.60
2018-04-06T11:25:34.127Z,27.90
2018-04-06T11:28:01.663Z,27.90
2018-04-06T11:30:29.226Z,27.70
2018-04-06T11:32:56.725Z,28.10
2018-04-06T11:35:24.233Z,27.80
2018-04-06T11:37:51.764Z,27.30
2018-04-06T11:40:20.100Z,27.70
2018-04-06T11:42:47.593Z,27.70
2018-04-06T11:45:15.874Z,27.50
2018-04-06T11:47:44.122Z,27.90
2018-04-06T11:50:11.655Z,27.90
2018-04-06T11:52:39.143Z,28.20
2018-04-06T11:55:06.680Z,29.70
2018-04-06T11:57:34.232Z,33.70
2018-04-06T12:00:01.733Z,33.20
2018-04-06T12:02:30.025Z,33.70
2018-04-06T12:04:58.284Z,34.00
2018-04-06T12:07:26.540Z,33.60
2018-04-06T12:09:54.140Z,33.50
2018-04-06T12:12:22.429Z,32.90
2018-04-06T12:14:49.951Z,32.90
2018-04-06T12:17:17.485Z,32.20
2018-04-06T12:19:44.973Z,32.30
2018-04-06T12:22:12.452Z,31.90
2018-04-06T12:24:39.965Z,33.20
2018-04-06T12:27:07.620Z,31.90
2018-04-06T12:42:35.953Z,30.70
2018-04-06T12:45:03.444Z,30.70
2018-04-06T12:47:30.960Z,30.20
2018-04-06T12:49:58.472Z,30.10
2018-04-06T12:52:25.963Z,30.40
2018-04-06T12:54:54.228Z,30.00
2018-04-06T12:57:21.698Z,29.90
2018-04-06T12:59:49.952Z,30.00
2018-04-06T13:02:17.443Z,30.00
2018-04-06T13:04:45.764Z,26.00
2018-04-06T13:07:13.254Z,25.90
2018-04-06T13:09:40.733Z,27.00
2018-04-06T13:12:08.998Z,27.00
2018-04-06T13:14:36.531Z,26.90
2018-04-06T13:17:04.095Z,26.70
2018-04-06T13:19:31.582Z,25.40
2018-04-06T13:21:59.837Z,25.80
2018-04-06T13:24:27.380Z,25.80
2018-04-06T13:26:54.920Z,25.90
2018-04-06T13:29:22.419Z,26.30
2018-04-06T13:31:49.884Z,27.20
2018-04-06T13:34:18.151Z,27.20
2018-04-06T13:36:45.617Z,27.20
2018-04-06T13:39:14.194Z,26.30
2018-04-06T13:41:41.737Z,26.30
2018-04-06T13:44:09.421Z,26.50
2018-04-06T13:46:36.984Z,26.30
2018-04-06T13:49:04.425Z,26.40
2018-04-06T13:51:31.938Z,26.70
2018-04-06T13:53:59.433Z,26.80
2018-04-06T13:56:26.959Z,26.20
2018-04-06T13:58:54.476Z,26.60
2018-04-06T14:01:23.681Z,26.60
2018-04-06T14:03:51.935Z,26.60
2018-04-06T14:06:19.472Z,26.60
2018-04-06T14:08:46.948Z,26.10
2018-04-06T14:11:14.445Z,26.40
2018-04-06T14:13:42.779Z,25.70
2018-04-06T14:16:10.291Z,25.70
2018-04-06T14:18:37.777Z,25.90
2018-04-06T14:21:05.280Z,26.40
2018-04-06T14:23:32.777Z,26.50
2018-04-06T14:26:01.033Z,27.30
2018-04-06T14:28:28.541Z,26.80
2018-04-06T14:30:56.027Z,26.40
2018-04-06T14:33:23.556Z,26.40
2018-04-06T14:35:51.104Z,26.90
2018-04-06T14:38:18.641Z,27.30
2018-04-06T14:40:46.133Z,27.40
2018-04-06T14:43:13.639Z,27.40
2018-04-06T14:45:41.952Z,26.60
2018-04-06T14:48:09.457Z,26.60
2018-04-06T14:50:36.963Z,27.50
2018-04-06T14:53:04.484Z,28.10
2018-04-06T14:55:32.750Z,28.60
2018-04-06T14:58:00.228Z,28.50
2018-04-06T15:00:28.528Z,26.90
2018-04-06T15:02:56.016Z,26.90
2018-04-06T15:05:23.527Z,27.40
2018-04-06T15:07:51.791Z,27.30
2018-04-06T15:10:19.283Z,27.20
2018-04-06T15:12:46.873Z,27.00
2018-04-06T15:15:14.372Z,26.80
2018-04-06T15:17:41.920Z,26.80
2018-04-06T15:20:09.479Z,26.70
2018-04-06T15:22:37.747Z,27.20
2018-04-06T15:25:05.216Z,27.20
2018-04-06T15:27:32.742Z,26.40
2018-04-06T15:30:00.228Z,27.20
2018-04-06T15:32:27.711Z,27.40
2018-04-06T15:34:55.231Z,27.50
2018-04-06T15:37:23.539Z,27.40
2018-04-06T15:39:51.768Z,27.10
2018-04-06T15:42:19.306Z,27.00
2018-04-06T15:44:46.806Z,26.80
2018-04-06T15:47:14.341Z,26.90
2018-04-06T15:49:41.812Z,26.90
2018-04-06T15:52:09.322Z,27.00
2018-04-06T15:54:36.863Z,27.20
2018-04-06T15:57:04.766Z,27.00
2018-04-06T15:59:36.300Z,27.10
2018-04-06T16:02:03.858Z,27.00
2018-04-06T16:04:32.306Z,26.80
2018-04-06T16:06:59.919Z,26.70
2018-04-06T16:09:27.516Z,27.50
2018-04-06T16:11:54.994Z,27.60
2018-04-06T16:14:22.534Z,27.90
2018-04-06T16:16:50.206Z,28.00
2018-04-06T16:19:17.905Z,28.00
2018-04-06T16:21:45.621Z,28.30
2018-04-06T16:24:13.172Z,28.30
2018-04-06T16:26:40.729Z,28.50
2018-04-06T16:29:08.388Z,28.60
2018-04-06T16:31:35.912Z,28.80
2018-04-06T16:34:03.531Z,28.50
2018-04-06T16:36:31.113Z,28.60
2018-04-06T16:38:58.775Z,28.80
2018-04-06T16:41:26.253Z,28.50
2018-04-06T16:43:54.568Z,28.00
2018-04-06T16:46:22.092Z,28.00
2018-04-06T16:48:50.399Z,27.90
2018-04-06T16:51:17.914Z,27.80
2018-04-06T16:53:46.180Z,32.30
2018-04-06T16:56:13.848Z,32.30
2018-04-06T16:58:42.341Z,32.10
2018-04-06T17:01:09.811Z,32.00
2018-04-06T17:03:37.978Z,30.50
2018-04-06T17:06:06.219Z,30.00
2018-04-06T17:08:34.552Z,32.70
2018-04-06T17:11:02.489Z,32.70
2018-04-06T17:13:30.005Z,33.50
2018-04-06T17:15:57.490Z,34.20
2018-04-06T17:18:25.051Z,34.60
2018-04-06T17:20:52.617Z,34.70
2018-04-06T17:23:20.114Z,34.80
2018-04-06T17:25:47.658Z,34.90
2018-04-06T17:28:16.686Z,35.10
2018-04-06T17:30:44.210Z,35.00
2018-04-06T17:33:11.844Z,35.30
2018-04-06T17:35:39.479Z,36.00
2018-04-06T17:38:07.051Z,35.40
2018-04-06T17:40:35.528Z,35.70
2018-04-06T17:43:03.069Z,35.70
2018-04-06T17:45:30.612Z,36.10
2018-04-06T17:47:58.108Z,36.50
2018-04-06T17:50:25.708Z,36.70
2018-04-06T17:52:53.953Z,37.50
2018-04-06T17:55:21.488Z,37.50
2018-04-06T17:57:49.020Z,37.80
2018-04-06T18:00:16.546Z,38.20
2018-04-06T18:02:44.069Z,38.30
2018-04-06T18:05:12.460Z,38.60
2018-04-06T18:07:40.017Z,38.70
2018-04-06T18:10:07.586Z,38.60
2018-04-06T18:12:35.082Z,39.10
2018-04-06T18:15:03.338Z,39.30
2018-04-06T18:17:30.803Z,39.40
2018-04-06T18:19:59.121Z,40.50
2018-04-06T18:22:26.836Z,39.90
2018-04-06T18:24:54.353Z,40.10
2018-04-06T18:27:21.870Z,40.20
2018-04-06T18:29:50.205Z,40.70
2018-04-06T18:32:17.855Z,40.60
2018-04-06T18:34:45.349Z,40.80
2018-04-06T18:37:12.847Z,41.10
2018-04-06T18:39:40.367Z,41.00
2018-04-06T18:42:07.921Z,41.30
2018-04-06T18:44:36.235Z,41.60
2018-04-06T18:47:03.687Z,41.40
2018-04-06T18:49:31.264Z,41.80
2018-04-06T18:51:58.844Z,41.70
2018-04-06T18:54:26.379Z,42.10
2018-04-06T18:56:53.870Z,42.40
2018-04-06T18:59:21.927Z,42.30
2018-04-06T19:01:49.448Z,42.50
2018-04-06T19:04:17.137Z,42.20
2018-04-06T19:06:44.671Z,42.30
2018-04-06T19:09:12.252Z,42.30
2018-04-06T19:11:39.895Z,42.70
2018-04-06T19:14:07.480Z,42.80
2018-04-06T19:16:35.013Z,43.00
2018-04-06T19:19:03.382Z,43.50
2018-04-06T19:21:30.870Z,43.50
2018-04-06T19:23:58.407Z,43.80
2018-04-06T19:26:26.662Z,44.10
2018-04-06T19:28:54.456Z,44.10
2018-04-06T19:31:22.687Z,45.60
2018-04-06T19:33:50.192Z,45.60
2018-04-06T19:36:18.444Z,46.20
2018-04-06T19:38:46.098Z,46.20
2018-04-06T19:41:13.649Z,46.00
2018-04-06T19:43:41.172Z,46.30
2018-04-06T19:46:08.674Z,46.40
2018-04-06T19:48:36.164Z,46.80
2018-04-06T19:51:04.420Z,47.30
2018-04-06T19:53:31.929Z,47.40
2018-04-06T19:55:59.453Z,47.50
2018-04-06T19:58:27.717Z,48.10
2018-04-06T20:00:55.277Z,48.10
2018-04-06T20:03:22.749Z,48.50
2018-04-06T20:05:51.046Z,48.30
2018-04-06T20:08:18.720Z,48.20
2018-04-06T20:10:46.374Z,48.40
2018-04-06T20:13:13.905Z,48.60
2018-04-06T20:15:42.244Z,48.10
2018-04-06T20:18:09.834Z,48.10
2018-04-06T20:20:38.160Z,48.30
2018-04-06T20:23:05.700Z,48.30
2018-04-06T20:25:33.996Z,48.80
2018-04-06T20:28:01.509Z,48.70
2018-04-06T20:30:29.909Z,49.20
2018-04-06T20:32:57.434Z,49.20
2018-04-06T20:35:24.912Z,49.30
2018-04-06T20:37:52.545Z,49.40
2018-04-06T20:40:20.018Z,49.10
2018-04-06T20:42:47.543Z,49.60
2018-04-06T20:45:15.054Z,49.50
2018-04-06T20:47:43.336Z,49.90
2018-04-06T20:50:11.594Z,50.40
2018-04-06T20:52:39.128Z,50.30
2018-04-06T20:55:06.706Z,50.40
2018-04-06T20:57:34.277Z,50.40
2018-04-06T21:00:02.629Z,50.50
2018-04-06T21:02:30.211Z,50.50
2018-04-06T21:04:57.695Z,50.40
2018-04-06T21:07:26.667Z,50.50
2018-04-06T21:09:54.179Z,50.50
2018-04-06T21:12:21.665Z,50.70
2018-04-06T21:14:50.039Z,50.30
2018-04-06T21:17:17.573Z,50.20
2018-04-06T21:19:45.065Z,50.10
2018-04-06T21:22:12.564Z,50.40
2018-04-06T21:24:40.151Z,50.60
2018-04-06T21:27:07.684Z,50.50
2018-04-06T21:29:35.166Z,50.60
2018-04-06T21:32:02.791Z,50.50
2018-04-06T21:34:30.405Z,50.30
2018-04-06T21:36:58.760Z,50.10
2018-04-06T21:39:26.241Z,50.40
2018-04-06T21:41:53.747Z,50.40
2018-04-06T21:44:22.079Z,50.10
2018-04-06T21:46:49.595Z,50.10
2018-04-06T21:49:18.222Z,50.60
2018-04-06T21:51:45.738Z,50.60
2018-04-06T21:54:14.033Z,51.30
2018-04-06T21:56:41.544Z,51.10
2018-04-06T21:59:09.029Z,50.80
2018-04-06T22:01:37.312Z,50.50
2018-04-06T22:04:05.576Z,50.60
2018-04-06T22:06:33.910Z,50.80
2018-04-06T22:09:01.456Z,50.80
2018-04-06T22:11:28.974Z,50.60
2018-04-06T22:13:57.220Z,50.80
2018-04-06T22:16:25.478Z,50.50
2018-04-06T22:18:52.984Z,50.40
2018-04-06T22:21:21.272Z,50.90
2018-04-06T22:23:49.558Z,51.20
2018-04-06T22:26:17.084Z,51.20
2018-04-06T22:28:44.550Z,51.10
2018-04-06T22:31:12.810Z,51.80
2018-04-06T22:33:41.093Z,51.90
2018-04-06T22:36:08.640Z,51.80
2018-04-06T22:38:36.116Z,52.00
2018-04-06T22:41:03.597Z,51.90
2018-04-06T22:43:31.883Z,52.20
2018-04-06T22:45:59.509Z,52.10
2018-04-06T22:48:27.228Z,52.50
2018-04-06T22:50:54.759Z,52.70
2018-04-06T22:53:23.104Z,52.80
2018-04-06T22:55:50.588Z,53.30
2018-04-06T22:58:18.149Z,54.10
2018-04-06T23:00:45.689Z,53.40
2018-04-06T23:03:13.191Z,53.50
2018-04-06T23:05:40.717Z,53.60
2018-04-06T23:08:09.029Z,54.00
2018-04-06T23:10:37.224Z,54.00
2018-04-06T23:13:04.734Z,54.10
2018-04-06T23:15:33.022Z,54.10
2018-04-06T23:18:00.516Z,54.10
2018-04-06T23:20:28.035Z,54.50
2018-04-06T23:22:55.589Z,54.80
2018-04-06T23:25:23.868Z,55.40
2018-04-06T23:27:52.148Z,55.70
2018-04-06T23:30:21.170Z,55.70
2018-04-06T23:32:48.676Z,55.80
2018-04-06T23:35:16.243Z,56.00
2018-04-06T23:37:44.489Z,56.00
2018-04-06T23:40:11.974Z,56.00
2018-04-06T23:42:39.528Z,56.20
2018-04-06T23:45:07.072Z,56.30
2018-04-06T23:47:35.120Z,56.40
2018-04-06T23:50:02.607Z,56.40
2018-04-06T23:52:30.115Z,56.50
2018-04-06T23:54:57.591Z,56.70
2018-04-06T23:57:25.244Z,56.50
2018-04-06T23:59:52.735Z,56.80
